Terminal Aerodrome Forecast
Issued by NWS

Home | Current Version | Previous Version | Text Only | Print | Product List | Glossary On
Versions: 1 2 3 4 5 6 7 8 9 10 11
000
FTUS46 KSEW 211500 AAA
TAFBFI
TAF AMD
KBFI 211531Z 2116/2212 18010KT P6SM SCT015 BKN050 BKN100
      TEMPO 2116/2118 BKN015
     FM220800 16005KT P6SM BKN025 OVC050=

USA.gov is the U.S. government's official web portal to all federal, state and local government web resources and services.